Time;durP1;ratioP1;P1;durP2;ratioP2;P2;SDS_P1;SDS_P2;PMS_P1;PMS_P2;Temp;Humidity;BMP_temperature;BMP_pressure;BME280_temperature;BME280_humidity;BME280_pressure;Samples;Min_cycle;Max_cycle;Signal;HPM_P1;HPM_P2
2023/06/22 00:00:15;;;;;;;2.15;0.75;;;;;;;28.12;28.12;101189.66;4988558;28;20135;-76
2023/06/22 00:02:43;;;;;;;1.02;0.70;;;;;;;28.11;28.38;101193.25;4984628;28;20081;-74
2023/06/22 00:05:16;;;;;;;1.27;0.90;;;;;;;28.03;27.14;101192.66;4995084;28;20054;-74
2023/06/22 00:07:44;;;;;;;1.95;0.65;;;;;;;28.03;28.47;101184.69;4986701;28;20489;-74
2023/06/22 00:10:13;;;;;;;0.98;0.60;;;;;;;28.09;29.27;101189.78;4985264;28;20437;-75
2023/06/22 00:12:42;;;;;;;1.15;0.80;;;;;;;28.13;28.11;101183.44;4987845;28;20121;-78
2023/06/22 00:15:11;;;;;;;0.85;0.70;;;;;;;28.15;28.42;101181.59;4991452;28;20188;-76
2023/06/22 00:17:39;;;;;;;1.55;0.90;;;;;;;28.11;28.36;101174.63;4985813;28;20042;-75
2023/06/22 00:20:10;;;;;;;4.65;0.77;;;;;;;28.03;26.99;101174.03;4985475;28;20100;-76
2023/06/22 00:22:40;;;;;;;2.22;0.80;;;;;;;27.99;28.82;101175.06;4983427;28;20089;-75
2023/06/22 00:25:09;;;;;;;1.17;0.90;;;;;;;27.98;28.34;101165.38;4985000;28;20039;-76
2023/06/22 00:27:38;;;;;;;2.65;0.90;;;;;;;28.03;28.28;101166.06;4984983;28;20492;-77
2023/06/22 00:30:18;;;;;;;0.93;0.77;;;;;;;28.02;27.68;101158.16;4985772;28;20054;-77
2023/06/22 00:32:47;;;;;;;1.25;0.82;;;;;;;28.03;27.71;101163.41;4987603;28;20046;-76
2023/06/22 00:35:15;;;;;;;1.52;0.98;;;;;;;28.01;28.43;101162.59;4984786;28;20039;-77
2023/06/22 00:37:47;;;;;;;1.92;0.93;;;;;;;27.98;27.21;101154.72;4986809;28;20054;-76
2023/06/22 00:40:21;;;;;;;2.05;0.80;;;;;;;27.93;27.53;101144.25;4986792;28;20144;-77
2023/06/22 00:42:50;;;;;;;2.00;0.95;;;;;;;27.92;28.76;101141.66;4985978;28;20101;-77
2023/06/22 00:45:18;;;;;;;2.22;1.10;;;;;;;27.92;28.66;101147.84;4985923;28;20546;-75
2023/06/22 00:47:47;;;;;;;1.30;0.80;;;;;;;27.91;27.22;101137.25;4986499;28;20117;-75
2023/06/22 00:50:22;;;;;;;1.20;0.80;;;;;;;27.90;28.03;101146.16;4985451;28;20046;-77
2023/06/22 00:52:56;;;;;;;2.00;0.93;;;;;;;27.81;27.57;101136.72;4985430;28;20523;-76
2023/06/22 00:55:26;;;;;;;2.55;1.15;;;;;;;27.73;27.68;101134.31;4986611;28;20054;-77
2023/06/22 00:57:56;;;;;;;0.95;0.73;;;;;;;27.49;28.02;101128.09;4985701;28;20046;-77
2023/06/22 01:00:26;;;;;;;1.00;0.90;;;;;;;27.44;28.36;101129.16;4988470;28;20208;-76
2023/06/22 01:02:59;;;;;;;1.08;0.90;;;;;;;27.37;27.63;101125.84;4983982;28;20106;-76
2023/06/22 01:05:30;;;;;;;1.33;0.80;;;;;;;27.31;28.08;101126.06;4989359;28;20133;-74
2023/06/22 01:08:15;;;;;;;1.05;0.80;;;;;;;27.20;27.58;101123.78;4987776;28;20047;-74
2023/06/22 01:10:55;;;;;;;3.10;1.08;;;;;;;27.14;27.56;101123.94;4983600;28;20047;-77
2023/06/22 01:13:32;;;;;;;1.40;1.00;;;;;;;27.15;28.24;101121.25;4984308;28;20052;-76
2023/06/22 01:16:07;;;;;;;1.25;0.90;;;;;;;27.13;27.73;101119.56;4985637;28;20049;-76
2023/06/22 01:18:42;;;;;;;3.63;1.27;;;;;;;27.06;27.56;101120.69;4984928;28;20057;-75
2023/06/22 01:21:14;;;;;;;2.72;1.20;;;;;;;27.06;29.07;101113.56;4987748;28;20050;-76
2023/06/22 01:24:00;;;;;;;1.55;1.10;;;;;;;27.07;29.27;101123.28;4986224;28;20052;-75
2023/06/22 01:26:39;;;;;;;1.42;0.75;;;;;;;27.05;27.88;101113.63;4984359;28;20050;-76
2023/06/22 01:29:13;;;;;;;1.48;1.05;;;;;;;27.03;27.66;101116.34;4986449;28;20042;-76
2023/06/22 01:31:44;;;;;;;1.20;0.85;;;;;;;27.01;28.19;101118.19;4982244;28;20077;-78
2023/06/22 01:34:14;;;;;;;1.52;0.80;;;;;;;27.00;28.00;101124.41;4984307;28;20043;-77
2023/06/22 01:36:43;;;;;;;2.55;1.10;;;;;;;26.92;28.10;101114.03;4985312;28;20043;-75
2023/06/22 01:39:13;;;;;;;1.33;0.80;;;;;;;26.85;28.76;101112.50;4984868;28;20066;-76
2023/06/22 01:41:43;;;;;;;6.95;0.98;;;;;;;26.80;29.06;101103.84;4986126;28;20529;-75
2023/06/22 01:44:14;;;;;;;2.17;1.02;;;;;;;26.73;28.26;101110.22;4982444;28;20105;-75
2023/06/22 01:46:43;;;;;;;0.90;0.80;;;;;;;26.69;29.53;101105.97;4979047;28;20054;-78
2023/06/22 01:49:15;;;;;;;1.85;1.00;;;;;;;26.68;28.88;101109.50;4984061;28;20279;-77
2023/06/22 01:51:43;;;;;;;2.53;1.05;;;;;;;26.62;28.54;101104.38;4986755;28;20066;-80
2023/06/22 01:54:12;;;;;;;2.65;1.10;;;;;;;26.56;28.55;101099.31;4987563;28;20050;-77
2023/06/22 01:56:41;;;;;;;3.53;1.00;;;;;;;26.51;28.10;101102.06;4986293;28;20133;-78
2023/06/22 01:59:19;;;;;;;1.45;0.80;;;;;;;26.44;29.25;101093.44;4988308;28;20097;-81
2023/06/22 02:01:56;;;;;;;2.28;0.80;;;;;;;26.36;29.09;101090.13;4986495;28;20042;-78
2023/06/22 02:04:30;;;;;;;1.00;0.90;;;;;;;26.29;28.53;101091.22;4986036;28;20054;-77
2023/06/22 02:07:07;;;;;;;1.92;1.15;;;;;;;26.25;28.29;101097.53;4983280;28;20539;-77
2023/06/22 02:09:40;;;;;;;2.38;1.13;;;;;;;26.18;28.18;101090.69;4986293;28;20109;-78
2023/06/22 02:12:11;;;;;;;1.83;0.90;;;;;;;26.07;27.82;101088.38;4985799;28;20073;-75
2023/06/22 02:14:43;;;;;;;1.05;0.70;;;;;;;25.98;29.18;101084.22;4986874;28;20083;-78
2023/06/22 02:17:12;;;;;;;1.48;0.80;;;;;;;25.96;29.59;101094.00;4988008;28;20197;-78
2023/06/22 02:19:42;;;;;;;1.40;0.70;;;;;;;25.95;29.31;101078.13;4985528;28;20114;-78
2023/06/22 02:22:12;;;;;;;2.10;0.90;;;;;;;25.91;29.32;101085.31;4978993;28;20147;-75
2023/06/22 02:24:41;;;;;;;1.08;0.90;;;;;;;25.87;29.33;101083.66;4982824;28;20046;-75
2023/06/22 02:27:10;;;;;;;1.08;0.70;;;;;;;25.84;29.94;101079.28;4985464;28;20050;-76
2023/06/22 02:29:39;;;;;;;1.83;0.90;;;;;;;25.74;29.48;101076.94;4989933;28;20058;-78
2023/06/22 02:32:10;;;;;;;2.00;0.90;;;;;;;25.64;29.91;101074.53;4988904;28;20488;-76
2023/06/22 02:34:38;;;;;;;1.50;0.80;;;;;;;25.60;29.94;101075.53;4989327;28;20056;-77
2023/06/22 02:37:10;;;;;;;1.20;0.90;;;;;;;25.57;30.10;101080.06;4983851;28;20113;-78
2023/06/22 02:39:38;;;;;;;;;;;;;;;25.52;30.17;101076.66;4989409;28;20062;-76
2023/06/22 02:42:07;;;;;;;1.65;1.00;;;;;;;25.41;29.02;101067.22;4991797;28;19945;-77
2023/06/22 02:44:36;;;;;;;1.08;0.82;;;;;;;25.37;29.90;101064.69;4986774;28;20065;-78
2023/06/22 02:47:05;;;;;;;1.60;0.73;;;;;;;25.36;30.99;101070.88;4986828;28;20066;-78
2023/06/22 02:49:35;;;;;;;2.33;1.55;;;;;;;25.31;31.97;101067.50;4990037;28;20129;-79
2023/06/22 02:52:04;;;;;;;1.15;0.80;;;;;;;25.25;31.71;101079.16;4996631;28;20070;-79
2023/06/22 02:54:33;;;;;;;1.52;0.77;;;;;;;25.18;32.16;101067.84;4982089;28;20059;-76
2023/06/22 02:57:02;;;;;;;1.67;1.00;;;;;;;25.09;30.64;101074.22;4990085;28;20038;-78
2023/06/22 02:59:31;;;;;;;1.13;0.90;;;;;;;25.04;30.91;101076.09;4992173;28;20042;-77
2023/06/22 03:02:00;;;;;;;1.55;1.00;;;;;;;25.01;31.16;101070.00;4990109;28;20058;-77
2023/06/22 03:04:29;;;;;;;1.38;0.80;;;;;;;24.95;31.51;101075.47;4990968;28;20054;-77
2023/06/22 03:07:00;;;;;;;2.30;0.90;;;;;;;24.83;32.23;101066.94;4989806;28;20050;-76
2023/06/22 03:09:31;;;;;;;2.42;0.90;;;;;;;24.82;32.30;101069.59;4983984;28;20662;-77
2023/06/22 03:12:00;;;;;;;1.80;0.90;;;;;;;24.76;33.22;101069.75;4987829;28;20050;-77
2023/06/22 03:14:29;;;;;;;2.08;1.10;;;;;;;24.72;33.14;101070.75;4984480;28;20062;-76
2023/06/22 03:17:01;;;;;;;1.42;1.02;;;;;;;24.67;32.59;101076.16;4986886;28;20094;-76
2023/06/22 03:19:31;;;;;;;1.35;0.93;;;;;;;24.63;32.88;101074.47;4990258;28;20057;-76
2023/06/22 03:22:02;;;;;;;1.20;0.93;;;;;;;24.56;33.11;101081.69;4987069;28;20061;-76
2023/06/22 03:24:30;;;;;;;1.55;1.13;;;;;;;24.51;33.07;101077.41;4987237;28;20054;-76
2023/06/22 03:26:59;;;;;;;2.30;1.15;;;;;;;24.44;33.72;101077.53;4987514;28;20054;-76
2023/06/22 03:29:27;;;;;;;1.40;1.10;;;;;;;24.40;33.12;101072.34;4985644;28;20098;-76
2023/06/22 03:31:58;;;;;;;2.22;1.20;;;;;;;24.33;33.68;101076.91;4992144;28;20489;-76
2023/06/22 03:34:26;;;;;;;2.05;1.20;;;;;;;24.29;33.41;101082.28;4988153;28;20047;-77
2023/06/22 03:36:55;;;;;;;1.65;1.00;;;;;;;24.18;33.46;101071.94;4986595;28;20647;-77
2023/06/22 03:39:42;;;;;;;1.85;1.30;;;;;;;24.15;34.03;101077.31;4990227;28;20054;-76
2023/06/22 03:42:18;;;;;;;1.15;0.85;;;;;;;24.07;34.32;101081.88;4988161;28;20050;-77
2023/06/22 03:44:46;;;;;;;1.75;1.10;;;;;;;24.00;34.62;101074.06;4998017;28;20047;-77
2023/06/22 03:47:15;;;;;;;3.40;1.10;;;;;;;23.92;35.04;101081.31;4998048;28;20043;-76
2023/06/22 03:49:46;;;;;;;1.75;1.10;;;;;;;23.83;35.28;101070.91;4995376;28;20092;-76
2023/06/22 03:52:14;;;;;;;1.70;1.10;;;;;;;23.76;35.75;101072.81;5000091;28;20046;-78
2023/06/22 03:54:45;;;;;;;5.07;1.50;;;;;;;23.68;35.65;101068.53;4992643;28;20109;-76
2023/06/22 03:57:13;;;;;;;1.65;1.00;;;;;;;23.61;36.08;101066.00;4991443;28;20046;-76
2023/06/22 03:59:42;;;;;;;2.10;1.27;;;;;;;23.54;36.26;101059.13;4986072;28;20050;-75
2023/06/22 04:02:10;;;;;;;2.33;1.20;;;;;;;23.48;36.68;101061.91;4985449;28;20811;-76
2023/06/22 04:04:39;;;;;;;1.40;1.13;;;;;;;23.40;36.37;101056.75;4991187;28;20038;-75
2023/06/22 04:07:08;;;;;;;15.40;1.60;;;;;;;23.31;36.91;101056.03;4985718;28;20047;-77
2023/06/22 04:09:37;;;;;;;1.77;1.20;;;;;;;23.24;38.01;101065.84;4982638;28;20054;-76
2023/06/22 04:12:08;;;;;;;4.80;1.70;;;;;;;23.09;37.87;101061.72;4994145;28;20057;-75
2023/06/22 04:14:37;;;;;;;1.63;1.30;;;;;;;22.94;38.60;101057.53;4989699;28;20039;-75
2023/06/22 04:17:06;;;;;;;2.35;1.40;;;;;;;22.87;39.57;101065.59;4984554;28;20524;-76
2023/06/22 04:19:34;;;;;;;1.85;1.10;;;;;;;22.82;38.67;101078.00;4991566;28;20041;-77
2023/06/22 04:22:03;;;;;;;2.65;1.50;;;;;;;22.75;38.38;101078.06;4987526;28;20065;-76
2023/06/22 04:24:31;;;;;;;2.28;1.48;;;;;;;22.72;39.10;101071.97;4991740;28;20113;-76
2023/06/22 04:27:02;;;;;;;3.08;1.52;;;;;;;22.67;39.09;101073.81;4990229;28;20070;-75
2023/06/22 04:29:32;;;;;;;2.58;1.50;;;;;;;22.60;38.96;101073.03;4988092;28;20508;-76
2023/06/22 04:32:05;;;;;;;2.10;1.35;;;;;;;22.49;38.62;101074.94;4988247;28;20061;-77
2023/06/22 04:34:37;;;;;;;2.05;1.50;;;;;;;22.44;40.54;101082.06;4992790;28;20761;-76
2023/06/22 04:37:06;;;;;;;2.72;1.52;;;;;;;22.38;40.21;101083.03;4991277;28;20052;-78
2023/06/22 04:39:35;;;;;;;2.80;1.30;;;;;;;22.31;40.26;101074.34;4989110;28;20046;-76
2023/06/22 04:42:04;;;;;;;3.47;1.23;;;;;;;22.26;40.07;101073.50;4987902;28;20065;-76
2023/06/22 04:44:41;;;;;;;2.58;1.40;;;;;;;22.20;40.59;101081.50;4989636;28;20154;-76
2023/06/22 04:47:10;;;;;;;5.72;1.55;;;;;;;22.14;40.11;101078.94;4983894;28;20054;-76
2023/06/22 04:49:40;;;;;;;3.47;1.48;;;;;;;22.08;40.90;101082.53;4986048;28;20100;-77
2023/06/22 04:52:10;;;;;;;2.20;1.40;;;;;;;22.00;42.15;101079.09;4985847;28;20050;-78
2023/06/22 04:54:47;;;;;;;1.83;1.20;;;;;;;21.89;40.06;101083.63;4984794;28;20055;-76
2023/06/22 04:57:16;;;;;;;2.63;1.65;;;;;;;21.85;42.50;101077.53;4985680;28;20047;-78
2023/06/22 04:59:46;;;;;;;2.85;1.42;;;;;;;21.83;41.14;101073.16;4982273;28;20053;-77
2023/06/22 05:02:15;;;;;;;2.92;1.40;;;;;;;21.80;41.16;101071.44;4983881;28;20046;-76
2023/06/22 05:04:43;;;;;;;1.65;1.35;;;;;;;21.78;41.11;101067.94;4984797;28;20057;-74
2023/06/22 05:07:12;;;;;;;1.58;1.10;;;;;;;21.75;41.13;101071.50;4985995;28;20086;-74
2023/06/22 05:09:41;;;;;;;1.35;1.10;;;;;;;21.72;41.63;101073.31;4986230;28;20046;-74
2023/06/22 05:12:11;;;;;;;2.63;1.50;;;;;;;21.60;42.06;101062.88;4987306;28;20109;-75
2023/06/22 05:14:40;;;;;;;3.58;1.52;;;;;;;21.60;41.33;101076.06;4984022;28;20587;-76
2023/06/22 05:17:13;;;;;;;2.67;1.55;;;;;;;21.53;43.58;101070.88;4989226;28;20076;-75
2023/06/22 05:19:44;;;;;;;3.45;1.30;;;;;;;21.48;42.06;101077.06;4986486;28;20046;-75
2023/06/22 05:22:13;;;;;;;4.30;1.63;;;;;;;21.43;42.05;101068.34;4986970;28;20058;-76
2023/06/22 05:24:42;;;;;;;1.80;1.23;;;;;;;21.39;42.57;101080.63;4987212;28;20046;-76
2023/06/22 05:27:10;;;;;;;2.75;1.48;;;;;;;21.37;42.80;101069.22;4987761;28;20555;-76
2023/06/22 05:29:39;;;;;;;2.65;1.33;;;;;;;21.33;43.13;101075.44;4985245;28;20060;-75
2023/06/22 05:32:10;;;;;;;2.92;1.38;;;;;;;21.29;43.31;101071.09;4982337;28;20046;-75
2023/06/22 05:34:39;;;;;;;2.10;1.40;;;;;;;21.25;43.61;101074.63;4982445;28;20070;-75
2023/06/22 05:37:09;;;;;;;2.38;1.08;;;;;;;21.20;43.72;101074.69;4981848;28;20507;-75
2023/06/22 05:39:39;;;;;;;3.10;1.27;;;;;;;21.17;43.87;101081.75;4985637;28;20574;-75
2023/06/22 05:42:08;;;;;;;2.03;1.33;;;;;;;21.13;44.20;101076.50;4987025;28;20469;-75
2023/06/22 05:44:37;;;;;;;3.70;1.25;;;;;;;21.09;44.16;101072.13;4987221;28;20145;-76
2023/06/22 05:47:07;;;;;;;2.55;1.58;;;;;;;21.06;44.74;101069.53;4984547;28;20072;-76
2023/06/22 05:49:37;;;;;;;2.80;1.70;;;;;;;21.04;46.02;101073.06;4982152;28;20113;-76
2023/06/22 05:52:06;;;;;;;2.28;1.40;;;;;;;21.01;46.00;101073.97;4987651;28;20716;-76
2023/06/22 05:54:41;;;;;;;3.47;1.55;;;;;;;20.95;46.32;101068.75;4983976;28;20050;-76
2023/06/22 05:57:15;;;;;;;2.45;1.40;;;;;;;20.87;45.88;101078.47;4988797;28;20141;-76
2023/06/22 05:59:44;;;;;;;2.33;1.30;;;;;;;20.79;46.22;101080.28;4984451;28;20050;-76
2023/06/22 06:02:13;;;;;;;2.70;1.50;;;;;;;20.69;46.43;101080.34;4987039;28;20050;-76
2023/06/22 06:04:43;;;;;;;2.22;1.10;;;;;;;20.62;46.65;101076.03;4989969;28;20084;-76
2023/06/22 06:07:11;;;;;;;3.75;1.38;;;;;;;20.55;46.89;101071.66;4989199;28;20050;-77
2023/06/22 06:09:40;;;;;;;1.60;1.13;;;;;;;20.49;47.36;101066.44;4987515;28;20057;-77
2023/06/22 06:12:09;;;;;;;3.40;1.20;;;;;;;20.48;47.64;101067.34;4988779;28;20112;-77
2023/06/22 06:14:38;;;;;;;3.40;1.50;;;;;;;20.47;47.62;101060.31;4990706;28;20146;-77
2023/06/22 06:17:06;;;;;;;2.08;1.20;;;;;;;20.47;48.09;101062.94;4988328;28;20049;-77
2023/06/22 06:19:35;;;;;;;1.27;1.10;;;;;;;20.44;47.93;101058.59;4988549;28;20054;-76
2023/06/22 06:22:05;;;;;;;4.10;1.25;;;;;;;20.43;47.87;101064.72;4989249;28;20050;-76
2023/06/22 06:24:34;;;;;;;1.95;1.13;;;;;;;20.40;47.88;101063.88;4989233;28;20432;-75
2023/06/22 06:27:06;;;;;;;3.05;1.38;;;;;;;20.36;47.69;101054.25;4987077;28;20047;-75
2023/06/22 06:29:37;;;;;;;2.67;1.40;;;;;;;20.31;48.17;101056.91;4983012;28;20054;-75
2023/06/22 06:32:06;;;;;;;2.75;1.42;;;;;;;20.27;48.51;101061.31;4989549;28;20065;-74
2023/06/22 06:34:34;;;;;;;2.75;1.45;;;;;;;20.24;49.52;101052.56;4980397;28;20496;-76
2023/06/22 06:37:05;;;;;;;2.97;1.23;;;;;;;20.17;49.77;101054.34;4984014;28;20133;-75
2023/06/22 06:39:33;;;;;;;4.82;1.42;;;;;;;20.11;49.40;101054.38;4988752;28;20066;-76
2023/06/22 06:42:02;;;;;;;2.70;1.65;;;;;;;20.05;49.25;101051.81;4985771;28;20046;-75
2023/06/22 06:44:30;;;;;;;1.73;1.40;;;;;;;19.99;49.43;101043.94;4984258;28;20108;-75
2023/06/22 06:46:59;;;;;;;3.38;1.42;;;;;;;19.91;50.05;101046.63;4988814;28;20046;-75
2023/06/22 06:49:28;;;;;;;2.60;1.25;;;;;;;19.86;50.26;101046.63;4987000;28;20514;-75
2023/06/22 06:51:57;;;;;;;3.63;1.50;;;;;;;19.80;51.94;101040.53;4989574;28;20046;-75
2023/06/22 06:54:35;;;;;;;3.35;1.20;;;;;;;19.70;52.05;101041.44;4984156;28;20050;-75
2023/06/22 06:57:04;;;;;;;2.55;1.50;;;;;;;19.61;51.57;101042.31;4983307;28;20129;-75
2023/06/22 06:59:32;;;;;;;2.85;1.40;;;;;;;19.55;52.61;101037.09;4984534;28;20133;-75
2023/06/22 07:02:01;;;;;;;3.95;1.33;;;;;;;19.42;52.08;101026.63;4989349;28;20524;-75
2023/06/22 07:04:30;;;;;;;2.35;1.38;;;;;;;19.43;52.33;101028.38;4990917;28;20366;-74
2023/06/22 07:06:58;;;;;;;2.78;1.45;;;;;;;19.41;52.10;101031.88;4989589;28;20149;-75
2023/06/22 07:09:31;;;;;;;4.13;1.60;;;;;;;19.33;51.99;101026.63;4986185;28;20675;-75
2023/06/22 07:11:59;;;;;;;2.35;1.38;;;;;;;19.27;52.56;101031.03;4986893;28;20082;-75
2023/06/22 07:14:31;;;;;;;2.95;1.42;;;;;;;19.23;53.93;101027.53;4987353;28;20504;-75
2023/06/22 07:17:02;;;;;;;3.22;1.60;;;;;;;19.17;54.46;101024.91;4990447;28;20562;-75
2023/06/22 07:19:31;;;;;;;1.75;1.30;;;;;;;19.14;53.56;101035.41;4983952;28;20628;-75
2023/06/22 07:22:00;;;;;;;1.77;1.27;;;;;;;19.09;53.88;101026.69;4985464;28;20054;-75
2023/06/22 07:24:30;;;;;;;6.07;1.52;;;;;;;19.06;53.40;101027.56;4984382;28;20114;-75
2023/06/22 07:27:02;;;;;;;2.20;1.30;;;;;;;19.01;53.99;101019.72;4987616;28;20073;-75
2023/06/22 07:29:31;;;;;;;2.33;1.73;;;;;;;18.97;53.40;101028.44;4983575;28;20058;-75
2023/06/22 07:32:00;;;;;;;1.55;1.25;;;;;;;18.89;54.08;101024.94;4988770;28;20136;-75
2023/06/22 07:34:33;;;;;;;4.50;1.35;;;;;;;18.87;55.16;101023.19;4986524;28;20153;-74
2023/06/22 07:37:02;;;;;;;2.28;1.40;;;;;;;18.82;55.04;101015.34;4983952;28;20118;-75
2023/06/22 07:39:32;;;;;;;6.13;1.40;;;;;;;18.73;54.56;101012.69;4988887;28;20125;-76
2023/06/22 07:42:08;;;;;;;2.63;1.30;;;;;;;18.76;54.00;101023.16;4988566;28;20078;-75
2023/06/22 07:44:36;;;;;;;2.38;1.42;;;;;;;18.74;54.46;101019.69;4980851;28;20113;-74
2023/06/22 07:47:05;;;;;;;6.00;1.75;;;;;;;18.67;54.50;101023.16;4986004;28;20988;-75
2023/06/22 07:49:33;;;;;;;2.25;1.55;;;;;;;18.59;55.97;101021.41;4988027;28;20595;-76
2023/06/22 07:52:02;;;;;;;4.88;1.48;;;;;;;18.55;56.89;101019.66;4985964;28;20048;-76
2023/06/22 07:54:32;;;;;;;2.10;1.48;;;;;;;18.52;55.91;101014.41;4988440;28;20058;-76
2023/06/22 07:57:00;;;;;;;2.25;1.30;;;;;;;18.50;55.85;101021.41;4988827;28;20064;-76
2023/06/22 07:59:28;;;;;;;3.30;1.58;;;;;;;18.43;56.06;101015.28;4988008;28;20530;-76
2023/06/22 08:01:57;;;;;;;2.60;1.35;;;;;;;18.38;55.88;101022.25;4987675;28;20133;-77
2023/06/22 08:04:27;;;;;;;1.52;1.30;;;;;;;18.35;55.83;101010.91;4990376;28;20074;-76
2023/06/22 08:07:01;;;;;;;4.75;1.40;;;;;;;18.33;56.40;101012.66;4981715;28;20053;-76
2023/06/22 08:09:33;;;;;;;2.42;1.30;;;;;;;18.30;56.23;101013.53;4984904;28;20125;-76
2023/06/22 08:12:02;;;;;;;3.58;1.35;;;;;;;18.27;56.12;101005.66;4987555;28;20773;-76
2023/06/22 08:14:36;;;;;;;2.47;1.45;;;;;;;18.24;56.35;101000.41;4987603;28;20058;-76
2023/06/22 08:17:04;;;;;;;2.97;1.55;;;;;;;18.20;56.79;101002.13;4986221;28;20073;-76
2023/06/22 08:19:33;;;;;;;3.60;1.60;;;;;;;18.16;57.09;100995.19;4984486;28;20516;-76
2023/06/22 08:22:01;;;;;;;2.10;1.30;;;;;;;18.13;56.62;101000.38;4986250;28;20055;-76
2023/06/22 08:24:32;;;;;;;2.05;1.40;;;;;;;18.11;56.98;100991.66;4988027;28;20112;-76
2023/06/22 08:27:00;;;;;;;3.75;1.75;;;;;;;18.08;56.93;100991.66;4986815;28;20046;-76
2023/06/22 08:29:33;;;;;;;2.33;1.40;;;;;;;18.03;57.89;100990.78;4986898;28;20101;-76
2023/06/22 08:32:00;;;;;;;;;;;;;;;17.98;58.32;100992.47;4985700;28;20088;-76
2023/06/22 08:34:29;;;;;;;2.63;1.40;;;;;;;17.92;57.76;100992.47;4987685;28;19960;-76
2023/06/22 08:36:57;;;;;;;4.80;1.42;;;;;;;17.87;58.57;100991.59;4983949;28;20054;-76
2023/06/22 08:39:27;;;;;;;6.43;1.30;;;;;;;17.82;58.73;100988.97;4985800;28;20049;-76
2023/06/22 08:41:59;;;;;;;2.75;1.60;;;;;;;17.79;58.77;100979.31;4979936;28;20061;-75
2023/06/22 08:44:28;;;;;;;1.98;1.33;;;;;;;17.77;58.43;100978.44;4986032;28;20042;-76
2023/06/22 08:46:56;;;;;;;2.47;1.70;;;;;;;17.75;58.16;100972.34;4982945;28;20413;-75
2023/06/22 08:49:25;;;;;;;2.92;1.17;;;;;;;17.74;58.58;100975.81;4984421;28;21814;-76
2023/06/22 08:51:55;;;;;;;2.08;1.38;;;;;;;17.70;58.83;100976.66;4986156;28;20536;-76
2023/06/22 08:54:27;;;;;;;2.33;1.50;;;;;;;17.68;60.00;100972.28;4987567;28;20062;-75
2023/06/22 08:56:57;;;;;;;2.05;1.40;;;;;;;17.64;59.85;100973.13;4984616;28;20047;-76
2023/06/22 08:59:25;;;;;;;2.15;1.35;;;;;;;17.59;59.22;100975.72;4989415;28;20046;-76
2023/06/22 09:01:54;;;;;;;2.00;1.27;;;;;;;17.54;58.97;100961.75;4985461;28;20050;-75
2023/06/22 09:04:34;;;;;;;2.15;1.30;;;;;;;17.53;59.83;100965.25;4983083;28;20505;-76
2023/06/22 09:07:03;;;;;;;2.42;1.42;;;;;;;17.49;59.87;100964.38;4982474;28;20160;-76
2023/06/22 09:09:32;;;;;;;2.42;1.40;;;;;;;17.45;61.04;100959.97;4990674;28;20554;-75
2023/06/22 09:12:02;;;;;;;2.55;1.25;;;;;;;17.42;61.48;100959.09;4984801;28;20050;-75
2023/06/22 09:14:30;;;;;;;3.28;1.77;;;;;;;17.40;60.63;100959.09;4988294;28;20059;-75
2023/06/22 09:16:59;;;;;;;3.55;1.70;;;;;;;17.34;60.93;100952.09;4984029;28;20089;-75
2023/06/22 09:19:28;;;;;;;2.83;1.30;;;;;;;17.30;61.15;100952.94;4983409;28;20054;-75
2023/06/22 09:21:57;;;;;;;2.45;1.65;;;;;;;17.30;60.65;100950.34;4986785;28;20053;-74
2023/06/22 09:24:27;;;;;;;1.85;1.30;;;;;;;17.28;60.79;100949.44;4987299;28;20072;-76
2023/06/22 09:26:55;;;;;;;1.92;1.42;;;;;;;17.25;61.55;100949.44;4984149;28;20147;-74
2023/06/22 09:29:26;;;;;;;2.95;1.70;;;;;;;17.23;61.37;100951.16;4984829;28;20058;-75
2023/06/22 09:31:55;;;;;;;2.60;1.40;;;;;;;17.22;61.22;100956.38;4983730;28;20056;-75
2023/06/22 09:34:24;;;;;;;2.90;1.58;;;;;;;17.20;62.83;100952.88;4982113;28;20055;-75
2023/06/22 09:36:55;;;;;;;2.10;1.00;;;;;;;17.15;61.80;100953.72;4981869;28;20050;-74
2023/06/22 09:39:23;;;;;;;2.63;1.00;;;;;;;17.12;62.75;100952.84;4988558;28;20574;-75
2023/06/22 09:41:52;;;;;;;1.67;1.25;;;;;;;17.10;62.56;100944.13;4986035;28;20061;-74
2023/06/22 09:44:21;;;;;;;3.28;1.60;;;;;;;17.06;63.12;100950.19;4985354;28;20093;-74
2023/06/22 09:46:52;;;;;;;1.48;1.20;;;;;;;17.03;62.73;100958.03;4976451;28;20054;-75
2023/06/22 09:49:20;;;;;;;3.03;1.60;;;;;;;17.01;63.12;100954.53;4984502;28;20137;-75
2023/06/22 09:51:49;;;;;;;2.60;1.50;;;;;;;17.01;63.33;100959.75;4981686;28;20047;-76
2023/06/22 09:54:18;;;;;;;2.90;1.30;;;;;;;16.99;63.78;100956.25;4986162;28;20038;-76
2023/06/22 09:56:47;;;;;;;1.58;1.17;;;;;;;16.94;63.47;100954.47;4977186;28;20047;-75
2023/06/22 09:59:17;;;;;;;2.53;1.65;;;;;;;16.89;62.62;100950.97;4983483;28;20134;-76
2023/06/22 10:01:46;;;;;;;2.83;1.25;;;;;;;16.87;63.00;100942.22;4984691;28;20046;-76
2023/06/22 10:04:17;;;;;;;2.28;1.45;;;;;;;16.84;63.36;100944.84;4985161;28;20047;-76
2023/06/22 10:06:45;;;;;;;2.17;1.17;;;;;;;16.82;63.20;100943.94;4986487;28;20058;-74
2023/06/22 10:09:14;;;;;;;2.17;1.10;;;;;;;16.79;63.56;100936.09;4982523;28;20057;-74
2023/06/22 10:11:43;;;;;;;3.03;1.48;;;;;;;16.79;63.34;100937.78;4984942;28;20054;-75
2023/06/22 10:14:11;;;;;;;1.92;1.25;;;;;;;16.78;62.97;100936.03;4984327;28;20046;-75
2023/06/22 10:16:40;;;;;;;2.05;1.50;;;;;;;16.75;63.30;100931.69;4980837;28;20093;-75
2023/06/22 10:19:09;;;;;;;2.35;1.10;;;;;;;16.71;63.64;100927.28;4988363;28;20476;-76
2023/06/22 10:21:39;;;;;;;5.35;1.45;;;;;;;16.72;63.21;100926.41;4978025;28;20047;-75
2023/06/22 10:24:09;;;;;;;2.20;1.30;;;;;;;16.69;63.14;100931.63;4984834;28;20059;-75
2023/06/22 10:26:38;;;;;;;1.88;1.20;;;;;;;16.67;63.33;100929.00;4979595;28;20509;-75
2023/06/22 10:29:06;;;;;;;4.05;1.45;;;;;;;16.67;63.80;100928.13;4982954;28;20055;-75
2023/06/22 10:31:35;;;;;;;2.50;1.30;;;;;;;16.62;64.25;100928.09;4981435;28;20109;-74
2023/06/22 10:34:03;;;;;;;2.63;1.40;;;;;;;16.59;64.77;100921.97;4984605;28;20050;-75
2023/06/22 10:36:34;;;;;;;2.90;1.27;;;;;;;16.58;63.83;100928.91;4984050;28;20062;-75
2023/06/22 10:39:05;;;;;;;3.30;1.55;;;;;;;16.54;65.62;100921.94;4982576;28;20046;-75
2023/06/22 10:41:34;;;;;;;1.85;1.25;;;;;;;16.48;65.55;100925.38;4984551;28;20054;-76
2023/06/22 10:44:02;;;;;;;2.88;1.35;;;;;;;16.47;65.58;100926.25;4983674;28;20050;-76
2023/06/22 10:46:31;;;;;;;3.53;1.50;;;;;;;16.45;65.61;100917.53;4989044;28;20060;-75
2023/06/22 10:49:00;;;;;;;2.17;1.27;;;;;;;16.44;65.71;100926.19;4990651;28;20499;-76
2023/06/22 10:51:28;;;;;;;2.83;1.50;;;;;;;16.41;67.53;100915.75;4987598;28;20051;-75
2023/06/22 10:53:57;;;;;;;1.50;1.13;;;;;;;16.40;65.80;100920.94;4987535;28;20042;-75
2023/06/22 10:56:27;;;;;;;1.92;1.25;;;;;;;16.38;67.29;100913.13;4991742;28;20052;-76
2023/06/22 10:58:58;;;;;;;2.58;1.10;;;;;;;16.34;66.97;100921.78;4990031;28;20567;-75
2023/06/22 11:01:26;;;;;;;2.53;1.50;;;;;;;16.30;67.56;100912.16;4983506;28;20489;-75
2023/06/22 11:03:55;;;;;;;1.30;1.20;;;;;;;16.27;67.87;100909.53;4985051;28;20117;-75
2023/06/22 11:06:24;;;;;;;2.28;1.50;;;;;;;16.25;68.11;100898.19;4984468;28;20054;-75
2023/06/22 11:08:52;;;;;;;2.35;1.35;;;;;;;16.24;68.38;100906.88;4985531;28;20190;-75
2023/06/22 11:11:23;;;;;;;1.85;1.23;;;;;;;16.22;67.94;100901.66;4985927;28;20050;-76
2023/06/22 11:13:55;;;;;;;3.85;1.30;;;;;;;16.21;69.10;100902.50;4988128;28;20940;-75
2023/06/22 11:16:23;;;;;;;3.63;1.02;;;;;;;16.21;70.28;100897.28;4986333;28;20050;-75
2023/06/22 11:18:52;;;;;;;1.40;1.10;;;;;;;16.19;70.39;100903.34;4986719;28;20049;-76
2023/06/22 11:21:21;;;;;;;2.75;1.50;;;;;;;16.15;69.51;100901.56;4997917;28;20137;-76
2023/06/22 11:23:51;;;;;;;3.00;1.30;;;;;;;16.12;69.87;100902.44;4991965;28;20050;-75
2023/06/22 11:26:21;;;;;;;2.60;1.52;;;;;;;16.03;69.00;100887.56;4988347;28;20165;-76
2023/06/22 11:28:49;;;;;;;2.20;1.05;;;;;;;15.99;71.07;100882.28;4989746;28;20082;-77
2023/06/22 11:31:19;;;;;;;2.05;1.35;;;;;;;15.99;70.82;100887.50;4986579;28;20180;-76
2023/06/22 11:33:50;;;;;;;2.50;1.38;;;;;;;15.97;70.45;100881.44;4986938;28;20500;-75
2023/06/22 11:36:19;;;;;;;3.83;1.45;;;;;;;15.95;71.10;100889.22;4987816;28;20063;-75
2023/06/22 11:38:47;;;;;;;2.13;1.30;;;;;;;15.93;71.69;100884.88;4988135;28;20134;-76